Time;durP1;ratioP1;P1;durP2;ratioP2;P2;SDS_P1;SDS_P2;PMS_P1;PMS_P2;Temp;Humidity;BMP_temperature;BMP_pressure;BME280_temperature;BME280_humidity;BME280_pressure;Samples;Min_cycle;Max_cycle;Signal;HPM_P1;HPM_P2
2023/12/28 00:01:13;;;;;;;26.70;24.00;;;;;;;1.53;88.36;98137.52;106298;1283;25420;-75
2023/12/28 00:03:41;;;;;;;24.80;21.80;;;;;;;1.50;88.47;98139.59;106315;1282;24441;-74
2023/12/28 00:06:10;;;;;;;24.40;21.90;;;;;;;1.48;88.39;98134.88;106371;1268;25499;-75
2023/12/28 00:08:38;;;;;;;25.00;21.40;;;;;;;1.47;88.27;98139.07;106210;1276;22617;-75
2023/12/28 00:11:06;;;;;;;28.40;22.80;;;;;;;1.49;88.07;98136.70;106347;1283;25384;-75
2023/12/28 00:13:34;;;;;;;23.00;20.10;;;;;;;1.53;88.14;98132.38;106235;1273;24224;-74
2023/12/28 00:16:02;;;;;;;22.80;19.50;;;;;;;1.58;88.21;98133.33;106282;1270;23987;-74
2023/12/28 00:18:30;;;;;;;23.20;19.50;;;;;;;1.62;88.25;98124.02;106254;1273;25268;-74
2023/12/28 00:20:58;;;;;;;23.40;20.40;;;;;;;1.62;88.19;98118.13;106188;1276;25753;-74
2023/12/28 00:23:26;;;;;;;24.40;21.50;;;;;;;1.61;88.12;98117.89;106243;1273;24377;-74
2023/12/28 00:25:54;;;;;;;26.50;23.60;;;;;;;1.57;88.01;98121.38;106217;1283;22547;-74
2023/12/28 00:28:22;;;;;;;25.10;22.40;;;;;;;1.56;88.00;98116.05;106120;1283;22602;-74
2023/12/28 00:30:50;;;;;;;24.10;21.10;;;;;;;1.55;87.76;98109.00;106063;1267;23241;-74
2023/12/28 00:33:18;;;;;;;23.10;20.70;;;;;;;1.52;87.83;98104.33;106299;1276;22803;-74
2023/12/28 00:35:46;;;;;;;20.90;18.80;;;;;;;1.49;87.59;98105.89;106305;1283;24224;-75
2023/12/28 00:38:14;;;;;;;22.30;20.00;;;;;;;1.47;87.51;98106.14;106302;1283;24518;-75
2023/12/28 00:40:42;;;;;;;21.60;19.00;;;;;;;1.50;87.52;98095.58;106330;1272;22582;-76
2023/12/28 00:43:10;;;;;;;21.90;19.60;;;;;;;1.53;87.70;98090.65;106211;1283;25370;-75
2023/12/28 00:45:38;;;;;;;23.80;20.80;;;;;;;1.56;87.57;98092.40;106184;1267;22767;-75
2023/12/28 00:48:06;;;;;;;24.70;21.30;;;;;;;1.56;87.57;98085.17;106321;1279;22495;-75
2023/12/28 00:50:34;;;;;;;22.90;20.40;;;;;;;1.55;87.54;98078.89;106346;1270;25432;-75
2023/12/28 00:53:03;;;;;;;23.30;20.80;;;;;;;1.54;87.62;98081.73;106139;1269;22565;-75
2023/12/28 00:55:31;;;;;;;21.60;19.30;;;;;;;1.54;87.27;98074.66;106515;1270;25514;-76
2023/12/28 00:57:59;;;;;;;22.30;18.90;;;;;;;1.53;87.04;98070.88;106334;1277;22559;-75
2023/12/28 01:00:28;;;;;;;23.40;19.20;;;;;;;1.51;86.89;98060.27;106410;1270;22618;-75
2023/12/28 01:02:57;;;;;;;20.40;17.90;;;;;;;1.54;87.15;98059.11;106342;1272;25515;-75
2023/12/28 01:05:28;;;;;;;21.70;19.10;;;;;;;1.56;87.01;98052.14;106175;1260;22603;-75
2023/12/28 01:07:56;;;;;;;20.40;18.10;;;;;;;1.63;87.16;98048.05;106607;1277;25252;-76
2023/12/28 01:10:25;;;;;;;21.40;18.30;;;;;;;1.64;87.25;98042.24;106201;1268;25285;-74
2023/12/28 01:12:53;;;;;;;19.30;17.20;;;;;;;1.65;87.32;98045.71;106224;1273;23164;-75
2023/12/28 01:15:21;;;;;;;20.60;18.30;;;;;;;1.65;87.30;98047.47;106228;1280;22546;-74
2023/12/28 01:17:49;;;;;;;21.70;19.40;;;;;;;1.64;87.06;98059.40;106228;1277;24289;-74
2023/12/28 01:20:17;;;;;;;21.20;19.00;;;;;;;1.63;87.18;98051.42;106258;1283;22533;-75
2023/12/28 01:22:45;;;;;;;21.50;19.20;;;;;;;1.64;87.30;98047.12;106207;1270;24299;-74
2023/12/28 01:25:13;;;;;;;24.30;20.10;;;;;;;1.63;87.00;98043.34;106239;1283;22544;-73
2023/12/28 01:27:42;;;;;;;21.50;19.20;;;;;;;1.62;87.10;98044.10;106304;1276;22667;-73
2023/12/28 01:30:12;;;;;;;23.00;18.90;;;;;;;1.63;87.07;98036.91;106275;1283;22616;-73
2023/12/28 01:32:40;;;;;;;20.00;17.30;;;;;;;1.67;87.14;98032.05;106292;1283;25366;-73
2023/12/28 01:35:08;;;;;;;21.10;16.70;;;;;;;1.72;87.44;98023.33;106259;1276;24234;-73
2023/12/28 01:37:36;;;;;;;19.50;17.50;;;;;;;1.76;87.47;98023.71;106237;1270;25276;-73
2023/12/28 01:40:05;;;;;;;22.30;19.20;;;;;;;1.77;87.38;98020.97;106229;1270;22573;-76
2023/12/28 01:42:35;;;;;;;21.30;17.50;;;;;;;1.76;87.21;98013.25;106098;1271;25684;-76
2023/12/28 01:45:04;;;;;;;20.90;18.10;;;;;;;1.75;87.10;98008.38;106566;1283;22545;-77
2023/12/28 01:47:32;;;;;;;21.80;18.20;;;;;;;1.73;87.20;98009.52;106268;1283;23889;-78
2023/12/28 01:50:02;;;;;;;22.00;18.40;;;;;;;1.71;87.10;98009.33;106570;1279;22826;-78
2023/12/28 01:52:30;;;;;;;19.20;17.20;;;;;;;1.68;87.02;98007.10;106395;1283;24378;-78
2023/12/28 01:54:59;;;;;;;21.10;18.80;;;;;;;1.69;87.22;98008.27;106654;1277;25396;-78
2023/12/28 01:57:27;;;;;;;21.30;18.80;;;;;;;1.72;87.38;98006.90;106259;1270;24232;-76
2023/12/28 01:59:58;;;;;;;24.90;22.20;;;;;;;1.74;87.39;98005.34;106147;1284;22550;-76
2023/12/28 02:02:26;;;;;;;34.90;31.20;;;;;;;1.73;87.46;98004.26;106129;1276;25539;-76
2023/12/28 02:04:54;;;;;;;67.50;59.90;;;;;;;1.70;87.09;97996.63;106259;1280;25429;-76
2023/12/28 02:07:24;;;;;;;60.90;54.50;;;;;;;1.66;87.20;97989.75;106245;1269;25353;-76
2023/12/28 02:09:52;;;;;;;58.50;52.60;;;;;;;1.60;87.28;97979.02;106319;1263;25411;-77
2023/12/28 02:12:20;;;;;;;59.20;53.20;;;;;;;1.58;87.18;97978.30;106170;1280;24484;-77
2023/12/28 02:14:48;;;;;;;59.40;52.90;;;;;;;1.54;87.13;97979.39;106514;1283;23909;-78
2023/12/28 02:17:25;;;;;;;54.60;45.10;;;;;;;1.50;87.39;97977.83;106248;1283;22582;-77
2023/12/28 02:19:55;;;;;;;70.90;49.80;;;;;;;1.48;87.34;97969.61;106242;1273;22543;-77
2023/12/28 02:22:25;;;;;;;62.50;47.10;;;;;;;1.47;87.13;97973.89;106573;1283;25309;-77
2023/12/28 02:25:14;;;;;;;61.90;45.70;;;;;;;1.46;87.08;97976.89;106495;1283;23022;-77
2023/12/28 02:27:47;;;;;;;47.70;39.10;;;;;;;1.45;87.43;97976.56;106639;1276;22644;-77
2023/12/28 02:30:17;;;;;;;40.50;33.30;;;;;;;1.44;87.62;97974.27;106574;1269;22566;-77
2023/12/28 02:33:15;;;;;;;37.60;33.50;;;;;;;1.43;87.48;97963.30;106582;1283;25369;-75
2023/12/28 02:36:18;;;;;;;30.00;26.30;;;;;;;1.43;87.76;97958.42;106291;1270;25915;-79
2023/12/28 02:38:48;;;;;;;24.50;22.00;;;;;;;1.45;87.98;97961.54;106300;1279;22540;-77
2023/12/28 02:41:17;;;;;;;21.80;19.20;;;;;;;1.47;88.01;97963.36;106653;1277;22573;-77
2023/12/28 02:43:47;;;;;;;20.70;17.50;;;;;;;1.49;87.95;97966.22;106553;1283;22538;-78
2023/12/28 02:46:15;;;;;;;20.40;18.20;;;;;;;1.51;87.74;97967.54;106485;1283;22972;-78
2023/12/28 02:48:43;;;;;;;21.50;18.40;;;;;;;1.50;87.62;97969.10;106593;1272;24032;-78
2023/12/28 02:51:11;;;;;;;42.60;38.40;;;;;;;1.49;88.04;97969.00;106617;1283;22657;-78
2023/12/28 02:53:39;;;;;;;40.20;36.70;;;;;;;1.50;88.28;97966.61;106427;1283;22587;-77
2023/12/28 02:56:07;;;;;;;35.00;31.70;;;;;;;1.50;88.39;97963.98;106277;1280;22607;-77
2023/12/28 02:58:36;;;;;;;29.50;26.50;;;;;;;1.52;88.32;97961.87;106643;1283;25638;-77
2023/12/28 03:01:04;;;;;;;28.40;25.70;;;;;;;1.50;88.25;97962.06;106360;1283;24810;-77
2023/12/28 03:03:32;;;;;;;25.60;22.80;;;;;;;1.43;88.23;97955.34;106209;1270;22557;-77
2023/12/28 03:06:00;;;;;;;21.70;18.40;;;;;;;1.42;88.12;97955.70;106241;1277;25381;-77
2023/12/28 03:08:28;;;;;;;22.60;19.20;;;;;;;1.33;88.04;97949.73;106264;1281;22689;-76
2023/12/28 03:10:56;;;;;;;20.60;18.40;;;;;;;1.20;88.10;97952.58;106324;1270;22553;-76
2023/12/28 03:13:24;;;;;;;23.00;20.50;;;;;;;1.10;88.40;97949.53;106143;1280;22664;-77
2023/12/28 03:15:52;;;;;;;23.30;21.00;;;;;;;1.07;88.56;97951.87;106311;1281;24395;-77
2023/12/28 03:18:20;;;;;;;24.90;22.50;;;;;;;1.06;88.62;97947.95;106137;1271;25298;-77
2023/12/28 03:20:49;;;;;;;28.70;23.20;;;;;;;0.95;88.30;97946.32;106371;1272;25267;-78
2023/12/28 03:23:17;;;;;;;29.60;26.50;;;;;;;0.83;88.65;97947.55;106198;1270;22561;-77
2023/12/28 03:25:45;;;;;;;25.50;22.70;;;;;;;0.77;88.74;97942.02;106115;1283;23233;-76
2023/12/28 03:28:13;;;;;;;23.90;20.30;;;;;;;0.73;88.91;97940.36;106184;1283;24338;-78
2023/12/28 03:30:41;;;;;;;22.50;18.50;;;;;;;0.71;88.78;97938.88;106422;1278;22581;-76
2023/12/28 03:33:09;;;;;;;18.90;17.00;;;;;;;0.62;89.72;97937.64;106234;1273;25060;-76
2023/12/28 03:35:37;;;;;;;30.60;27.70;;;;;;;0.52;89.69;97934.14;106192;1283;25422;-77
2023/12/28 03:38:05;;;;;;;22.60;20.20;;;;;;;0.49;89.56;97933.27;106208;1270;22583;-77
2023/12/28 03:40:33;;;;;;;23.30;20.40;;;;;;;0.45;89.86;97923.02;106297;1271;25242;-77
2023/12/28 03:43:01;;;;;;;19.70;17.60;;;;;;;0.37;91.06;97925.23;106193;1270;24290;-77
2023/12/28 03:45:29;;;;;;;20.90;18.70;;;;;;;0.41;91.35;97921.72;106180;1282;22601;-78
2023/12/28 03:47:57;;;;;;;21.90;19.70;;;;;;;0.49;90.95;97918.20;106298;1283;22545;-77
2023/12/28 03:50:26;;;;;;;21.70;19.40;;;;;;;0.53;90.23;97916.77;106237;1273;22559;-77
2023/12/28 03:52:54;;;;;;;22.80;20.40;;;;;;;0.49;90.11;97911.00;106433;1276;25153;-77
2023/12/28 03:55:22;;;;;;;23.50;20.80;;;;;;;0.43;90.05;97912.11;106212;1283;25170;-77
2023/12/28 03:57:51;;;;;;;38.30;34.70;;;;;;;0.34;90.05;97908.88;106239;1270;22622;-77
2023/12/28 04:00:20;;;;;;;28.70;25.60;;;;;;;0.25;90.03;97903.93;106461;1273;22545;-77
2023/12/28 04:02:48;;;;;;;27.20;24.50;;;;;;;0.17;90.21;97900.05;106244;1280;22620;-77
2023/12/28 04:05:18;;;;;;;20.70;18.40;;;;;;;0.13;90.34;97896.80;106447;1273;25390;-77
2023/12/28 04:07:47;;;;;;;18.20;16.30;;;;;;;0.13;90.88;97892.33;106261;1273;23397;-77
2023/12/28 04:10:28;;;;;;;21.60;19.40;;;;;;;0.13;91.06;97894.98;106616;1276;25372;-77
2023/12/28 04:12:57;;;;;;;22.10;19.90;;;;;;;0.14;92.11;97911.44;106608;1280;22551;-77
2023/12/28 04:15:26;;;;;;;25.70;23.20;;;;;;;0.08;93.83;97915.04;106281;1276;22553;-76
2023/12/28 04:17:54;;;;;;;26.50;24.00;;;;;;;-0.05;92.86;97919.58;106236;1282;25289;-76
2023/12/28 04:20:23;;;;;;;29.40;26.50;;;;;;;-0.09;92.88;97926.77;106172;1270;25386;-77
2023/12/28 04:22:51;;;;;;;25.30;22.80;;;;;;;-0.11;92.87;97932.64;106308;1270;25348;-77
2023/12/28 04:25:19;;;;;;;20.40;18.40;;;;;;;-0.09;92.80;97944.39;106172;1276;22603;-78
2023/12/28 04:27:47;;;;;;;21.70;19.50;;;;;;;-0.11;92.79;97942.70;106217;1270;22543;-77
2023/12/28 04:30:15;;;;;;;26.60;23.90;;;;;;;-0.08;92.75;97948.80;106528;1277;25434;-77
2023/12/28 04:32:43;;;;;;;32.00;29.20;;;;;;;-0.14;93.50;97954.90;106552;1272;25452;-77
2023/12/28 04:35:12;;;;;;;27.00;24.20;;;;;;;-0.20;93.59;97950.58;106370;1270;24434;-77
2023/12/28 04:37:40;;;;;;;30.50;27.50;;;;;;;-0.24;93.90;97954.56;106212;1270;22721;-77
2023/12/28 04:40:08;;;;;;;39.30;35.80;;;;;;;-0.30;94.44;97953.46;106323;1280;23900;-77
2023/12/28 04:42:36;;;;;;;29.10;26.10;;;;;;;-0.33;94.69;97948.30;106634;1283;22536;-77
2023/12/28 04:45:05;;;;;;;31.50;25.70;;;;;;;-0.33;94.74;97950.63;106505;1283;24063;-78
2023/12/28 04:47:33;;;;;;;35.10;31.50;;;;;;;-0.34;95.55;97945.84;106116;1270;22572;-78
2023/12/28 04:50:03;;;;;;;35.40;31.70;;;;;;;-0.35;94.96;97937.18;106219;1283;22537;-77
2023/12/28 04:52:31;;;;;;;31.60;28.30;;;;;;;-0.35;94.47;97943.20;106291;1272;24382;-77
2023/12/28 04:54:59;;;;;;;34.00;30.60;;;;;;;-0.37;94.27;97933.77;106195;1273;25478;-77
2023/12/28 04:57:28;;;;;;;30.30;27.20;;;;;;;-0.42;94.64;97936.42;106238;1283;22679;-78
2023/12/28 04:59:56;;;;;;;25.50;22.70;;;;;;;-0.50;96.27;97935.98;106207;1280;24212;-77
2023/12/28 05:02:24;;;;;;;28.40;23.20;;;;;;;-0.61;97.15;97941.55;106539;1273;24355;-78
2023/12/28 05:04:52;;;;;;;25.50;22.80;;;;;;;-0.66;97.00;97947.93;106566;1280;24256;-77
2023/12/28 05:07:21;;;;;;;31.60;27.40;;;;;;;-0.66;97.06;97950.11;106374;1283;22623;-76
2023/12/28 05:09:49;;;;;;;56.20;51.20;;;;;;;-0.67;97.38;97945.09;106289;1270;22540;-78
2023/12/28 05:12:17;;;;;;;34.30;31.10;;;;;;;-0.63;96.75;97942.67;106348;1268;22554;-77
2023/12/28 05:14:45;;;;;;;26.80;24.20;;;;;;;-0.57;96.61;97937.33;106237;1277;23250;-77
2023/12/28 05:17:13;;;;;;;31.70;28.40;;;;;;;-0.58;96.57;97934.17;106332;1283;25285;-76
2023/12/28 05:19:41;;;;;;;33.90;30.30;;;;;;;-0.64;96.33;97933.44;106586;1270;22995;-77
2023/12/28 05:22:11;;;;;;;40.80;36.50;;;;;;;-0.63;95.95;97928.85;106355;1272;25429;-77
2023/12/28 05:24:39;;;;;;;32.10;27.50;;;;;;;-0.62;95.49;97933.58;106243;1270;24384;-77
2023/12/28 05:27:07;;;;;;;48.20;43.10;;;;;;;-0.65;97.05;97936.60;106284;1273;24382;-76
2023/12/28 05:29:35;;;;;;;52.20;47.20;;;;;;;-0.68;97.96;97940.01;106194;1276;22640;-76
2023/12/28 05:32:04;;;;;;;48.20;43.00;;;;;;;-0.69;97.09;97941.36;106207;1275;22536;-77
2023/12/28 05:34:32;;;;;;;45.20;40.40;;;;;;;-0.71;96.53;97939.23;106154;1273;22723;-77
2023/12/28 05:37:00;;;;;;;43.50;38.90;;;;;;;-0.76;97.28;97944.60;106206;1276;23053;-77
2023/12/28 05:39:28;;;;;;;32.90;29.40;;;;;;;-0.84;98.72;97953.87;106221;1283;25252;-77
2023/12/28 05:41:56;;;;;;;33.80;30.30;;;;;;;-0.92;99.43;97960.52;106203;1261;22563;-78
2023/12/28 05:44:24;;;;;;;41.00;36.50;;;;;;;-0.95;98.82;97966.65;106171;1276;22621;-78
2023/12/28 05:46:52;;;;;;;42.20;38.10;;;;;;;-0.92;98.85;97971.27;106180;1273;22579;-77
2023/12/28 05:49:20;;;;;;;32.50;29.10;;;;;;;-0.81;99.51;97974.46;106450;1268;23151;-78
2023/12/28 05:51:48;;;;;;;34.80;30.90;;;;;;;-0.59;100.00;97983.85;106585;1280;22714;-78
2023/12/28 05:54:16;;;;;;;73.90;56.50;;;;;;;-0.27;100.00;97968.90;106553;1270;22571;-78
2023/12/28 05:56:44;;;;;;;62.70;52.00;;;;;;;0.02;99.96;97960.91;106630;1273;22553;-78
2023/12/28 05:59:12;;;;;;;66.50;57.20;;;;;;;0.21;99.50;97957.95;106702;1277;22562;-78
2023/12/28 06:01:43;;;;;;;70.40;56.50;;;;;;;0.42;99.63;97952.74;106604;1282;22674;-78
2023/12/28 06:04:11;;;;;;;51.70;46.00;;;;;;;0.61;99.19;97945.04;106696;1279;22660;-77
2023/12/28 06:06:40;;;;;;;51.10;45.80;;;;;;;0.72;98.79;97931.27;106405;1273;25351;-78
2023/12/28 06:09:08;;;;;;;47.90;43.20;;;;;;;0.71;98.44;97928.91;106313;1272;25363;-78
2023/12/28 06:11:37;;;;;;;40.80;36.70;;;;;;;0.68;98.39;97932.56;106386;1283;22547;-77
2023/12/28 06:14:05;;;;;;;37.80;33.90;;;;;;;0.64;98.22;97933.44;106346;1273;22551;-77
2023/12/28 06:16:33;;;;;;;38.50;34.50;;;;;;;0.45;98.53;97930.19;106280;1275;24233;-77
2023/12/28 06:19:01;;;;;;;38.30;34.30;;;;;;;0.37;98.33;97927.46;106252;1270;22930;-77
2023/12/28 06:21:30;;;;;;;38.80;35.00;;;;;;;0.31;98.10;97921.77;106257;1264;22682;-76
2023/12/28 06:23:59;;;;;;;35.90;32.20;;;;;;;0.32;98.38;97916.16;106257;1273;23926;-77
2023/12/28 06:26:27;;;;;;;37.60;33.80;;;;;;;0.38;98.96;97926.64;106244;1283;25548;-77
2023/12/28 06:28:55;;;;;;;44.60;40.30;;;;;;;0.46;98.89;97930.45;106270;1273;24384;-77
2023/12/28 06:31:23;;;;;;;47.40;43.00;;;;;;;0.42;98.51;97932.98;106558;1276;22585;-78
2023/12/28 06:33:51;;;;;;;37.50;33.80;;;;;;;0.44;98.14;97928.09;106664;1284;24065;-77
2023/12/28 06:36:19;;;;;;;32.70;29.50;;;;;;;0.44;98.39;97925.69;106497;1280;25441;-78
2023/12/28 06:38:47;;;;;;;34.40;31.20;;;;;;;0.51;98.63;97909.65;106887;1283;24320;-78
2023/12/28 06:41:15;;;;;;;38.40;34.50;;;;;;;0.61;98.90;97908.82;106830;1283;22557;-78
2023/12/28 06:43:44;;;;;;;39.30;35.30;;;;;;;0.62;98.36;97917.59;106536;1282;25297;-77
2023/12/28 06:46:12;;;;;;;37.90;33.90;;;;;;;0.56;99.42;97937.18;106284;1268;22543;-79
2023/12/28 06:48:40;;;;;;;36.20;32.60;;;;;;;0.31;100.00;97954.10;106666;1269;22666;-77
2023/12/28 06:51:09;;;;;;;37.50;33.60;;;;;;;0.20;100.00;97962.10;106350;1268;23909;-77
2023/12/28 06:53:38;;;;;;;38.40;34.60;;;;;;;0.10;100.00;97976.15;106460;1283;23900;-77
2023/12/28 06:56:07;;;;;;;39.10;35.00;;;;;;;0.16;100.00;97976.34;106248;1283;24227;-77
2023/12/28 06:58:35;;;;;;;43.60;39.20;;;;;;;0.25;99.99;97985.48;106294;1283;25452;-77
2023/12/28 07:01:04;;;;;;;40.70;36.30;;;;;;;0.27;99.93;97981.36;106179;1270;26661;-76
2023/12/28 07:03:33;;;;;;;38.40;34.70;;;;;;;0.42;100.00;97965.41;106198;1283;22546;-77
2023/12/28 07:06:02;;;;;;;37.40;33.80;;;;;;;0.54;100.00;97974.90;106373;1283;23136;-77
2023/12/28 07:08:31;;;;;;;46.40;41.60;;;;;;;0.64;100.00;97971.73;106684;1280;24412;-78
2023/12/28 07:11:03;;;;;;;42.30;38.10;;;;;;;0.69;99.71;97977.52;106580;1271;22599;-76
2023/12/28 07:13:32;;;;;;;49.20;44.50;;;;;;;0.79;99.92;97977.13;106132;1270;24256;-77
2023/12/28 07:16:01;;;;;;;48.80;44.20;;;;;;;0.89;99.96;97979.46;106229;1283;24338;-77
2023/12/28 07:18:30;;;;;;;46.10;41.70;;;;;;;0.98;100.00;97979.81;106168;1271;22606;-78
2023/12/28 07:20:58;;;;;;;44.90;40.40;;;;;;;1.05;100.00;97972.24;106245;1280;22775;-78
2023/12/28 07:23:27;;;;;;;43.50;39.30;;;;;;;1.10;100.00;97969.86;106571;1268;24366;-78
2023/12/28 07:25:55;;;;;;;45.40;40.80;;;;;;;1.14;99.99;97971.20;106577;1283;22631;-78
2023/12/28 07:28:23;;;;;;;40.30;36.30;;;;;;;1.21;100.00;97965.55;106542;1273;23152;-78
2023/12/28 07:30:51;;;;;;;43.80;39.60;;;;;;;1.37;100.00;97970.16;106543;1277;22550;-77
2023/12/28 07:33:19;;;;;;;39.40;35.50;;;;;;;1.44;100.00;97972.73;106236;1268;22655;-78
2023/12/28 07:35:48;;;;;;;37.70;34.20;;;;;;;1.36;99.89;97978.06;106553;1282;25275;-78
2023/12/28 07:38:16;;;;;;;45.80;41.20;;;;;;;1.41;100.00;97975.41;106599;1273;22553;-78
2023/12/28 07:40:44;;;;;;;39.90;35.90;;;;;;;1.47;100.00;97970.59;106466;1270;22719;-77
2023/12/28 07:43:11;;;;;;;33.90;30.50;;;;;;;1.55;100.00;97973.23;106232;1275;22541;-77
2023/12/28 07:45:41;;;;;;;33.80;30.20;;;;;;;1.69;100.00;97969.66;106165;1273;22566;-78
2023/12/28 07:48:09;;;;;;;36.90;33.30;;;;;;;1.79;100.00;97968.02;106564;1283;23413;-77
2023/12/28 07:50:38;;;;;;;66.30;58.70;;;;;;;1.92;100.00;97968.92;106619;1283;22743;-77
2023/12/28 07:53:06;;;;;;;56.40;50.50;;;;;;;2.02;100.00;97967.56;106672;1282;25264;-78
2023/12/28 07:55:34;;;;;;;35.70;32.10;;;;;;;2.14;100.00;97966.79;106364;1280;24315;-77
2023/12/28 07:58:02;;;;;;;51.50;42.30;;;;;;;2.29;100.00;97962.60;106614;1283;25322;-77
2023/12/28 08:00:30;;;;;;;42.60;37.80;;;;;;;2.49;100.00;97970.48;106199;1276;23273;-78
2023/12/28 08:02:58;;;;;;;42.40;36.30;;;;;;;2.68;100.00;97972.94;106185;1283;22547;-77
2023/12/28 08:05:26;;;;;;;33.90;30.40;;;;;;;2.87;100.00;97975.16;106236;1277;22545;-78
2023/12/28 08:07:54;;;;;;;40.30;35.10;;;;;;;3.04;100.00;97977.55;106606;1273;22637;-78
2023/12/28 08:10:22;;;;;;;33.10;29.80;;;;;;;3.15;100.00;97980.23;106552;1271;25310;-79
2023/12/28 08:12:50;;;;;;;33.90;28.20;;;;;;;3.28;100.00;97974.84;106557;1273;22556;-78
2023/12/28 08:15:18;;;;;;;29.50;26.40;;;;;;;3.39;100.00;97971.71;106543;1282;22573;-79
2023/12/28 08:17:46;;;;;;;30.30;27.10;;;;;;;3.51;100.00;97969.27;106467;1283;24049;-78
2023/12/28 08:20:14;;;;;;;28.70;25.90;;;;;;;3.61;100.00;97972.10;106247;1277;22537;-79
2023/12/28 08:22:42;;;;;;;52.30;44.70;;;;;;;3.68;100.00;97970.39;106515;1283;22663;-78
2023/12/28 08:25:10;;;;;;;48.00;39.40;;;;;;;3.76;100.00;97976.83;106248;1273;24357;-78
2023/12/28 08:27:38;;;;;;;39.60;35.50;;;;;;;3.82;100.00;97975.39;106427;1283;22547;-77
2023/12/28 08:30:07;;;;;;;43.80;36.80;;;;;;;3.91;100.00;97973.33;106360;1274;26025;-77
2023/12/28 08:32:35;;;;;;;42.00;37.80;;;;;;;3.99;100.00;97981.83;106373;1271;25575;-77
2023/12/28 08:35:04;;;;;;;41.60;37.20;;;;;;;4.03;100.00;97981.27;106239;1274;25360;-77
2023/12/28 08:37:33;;;;;;;48.20;43.50;;;;;;;4.08;100.00;97978.28;106206;1271;22617;-78
2023/12/28 08:40:00;;;;;;;52.40;47.00;;;;;;;4.11;100.00;97981.39;106213;1264;23036;-78
2023/12/28 08:42:29;;;;;;;61.80;55.70;;;;;;;4.16;100.00;97985.97;106199;1283;25449;-78
2023/12/28 08:44:56;;;;;;;39.30;35.50;;;;;;;4.21;100.00;97987.02;106541;1269;24360;-78
2023/12/28 08:47:25;;;;;;;39.10;35.40;;;;;;;4.27;100.00;97982.95;106574;1273;22687;-78
2023/12/28 08:49:53;;;;;;;41.10;36.30;;;;;;;4.29;100.00;97979.25;106568;1273;22547;-77
2023/12/28 08:52:21;;;;;;;37.50;33.70;;;;;;;4.34;100.00;97985.40;106278;1280;24293;-77
2023/12/28 08:54:49;;;;;;;31.20;28.30;;;;;;;4.39;100.00;97986.23;106594;1273;22552;-77
2023/12/28 08:57:17;;;;;;;29.10;26.20;;;;;;;4.45;100.00;97983.19;106242;1277;24226;-78
2023/12/28 09:00:05;;;;;;;30.50;27.20;;;;;;;4.53;100.00;97979.56;106533;1261;23396;-77
2023/12/28 09:02:33;;;;;;;32.10;28.70;;;;;;;4.61;100.00;97978.75;106287;1283;22551;-78
2023/12/28 09:05:01;;;;;;;32.20;28.80;;;;;;;4.67;100.00;97982.00;106325;1282;22537;-79
2023/12/28 09:07:29;;;;;;;32.90;29.60;;;;;;;4.72;100.00;97978.55;106180;1277;22665;-79
2023/12/28 09:09:57;;;;;;;29.10;26.10;;;;;;;4.77;100.00;97981.09;106523;1283;23352;-78
2023/12/28 09:12:25;;;;;;;29.40;26.60;;;;;;;4.83;100.00;97983.63;106414;1270;22537;-79
2023/12/28 09:14:53;;;;;;;29.20;26.40;;;;;;;4.87;100.00;97979.59;106409;1283;24469;-80
2023/12/28 09:17:22;;;;;;;27.30;24.60;;;;;;;4.91;100.00;97984.80;106586;1272;25334;-80
2023/12/28 09:19:50;;;;;;;29.60;26.60;;;;;;;4.94;99.95;97985.09;106687;1270;23901;-79
2023/12/28 09:22:19;;;;;;;27.50;24.60;;;;;;;4.98;99.96;97991.40;106549;1283;22594;-78
2023/12/28 09:24:46;;;;;;;29.30;25.70;;;;;;;5.05;99.96;97990.79;106511;1280;22605;-77
2023/12/28 09:27:15;;;;;;;27.60;24.80;;;;;;;5.13;99.92;97987.57;106171;1283;25555;-79
2023/12/28 09:29:43;;;;;;;25.20;22.70;;;;;;;5.21;99.90;97987.97;106542;1277;23900;-78
2023/12/28 09:32:11;;;;;;;26.80;24.20;;;;;;;5.29;99.79;97989.02;106745;1283;22629;-78
2023/12/28 09:34:40;;;;;;;29.80;26.80;;;;;;;5.36;99.70;97992.84;106618;1282;23413;-79
2023/12/28 09:37:08;;;;;;;26.40;23.60;;;;;;;5.44;98.63;97990.18;106638;1283;23409;-78
2023/12/28 09:39:36;;;;;;;25.40;22.50;;;;;;;5.52;98.10;97985.98;106192;1268;25369;-79
2023/12/28 09:42:09;;;;;;;27.60;24.70;;;;;;;5.60;98.75;97977.02;106242;1283;25440;-78
2023/12/28 09:44:39;;;;;;;24.80;22.20;;;;;;;5.71;98.41;97975.98;106454;1277;22783;-77
2023/12/28 09:47:07;;;;;;;33.90;30.60;;;;;;;5.82;97.98;97971.98;106470;1281;22556;-77
2023/12/28 09:49:37;;;;;;;44.60;40.10;;;;;;;5.89;97.97;97971.88;106306;1283;25372;-78
2023/12/28 09:52:06;;;;;;;34.30;30.90;;;;;;;5.93;97.13;97968.64;106516;1276;118774;-77
2023/12/28 09:54:35;;;;;;;32.90;29.60;;;;;;;6.00;97.12;97956.30;106345;1280;22562;-77
2023/12/28 09:57:03;;;;;;;44.80;40.40;;;;;;;6.06;97.00;97956.51;106313;1270;22787;-77
2023/12/28 09:59:32;;;;;;;29.80;26.60;;;;;;;6.08;97.27;97955.66;106251;1278;22558;-78
2023/12/28 10:02:01;;;;;;;33.70;30.20;;;;;;;6.12;96.34;97958.44;106550;1283;25344;-78
2023/12/28 10:04:29;;;;;;;45.00;40.60;;;;;;;6.16;95.70;97951.21;106531;1280;24231;-78
2023/12/28 10:06:58;;;;;;;30.70;26.70;;;;;;;6.20;94.81;97947.80;106184;1283;25583;-77
2023/12/28 10:09:30;;;;;;;26.90;23.90;;;;;;;6.26;95.09;97945.73;106390;1277;25400;-77
2023/12/28 10:11:58;;;;;;;31.20;28.10;;;;;;;6.34;94.88;97941.89;106352;1278;22793;-78
2023/12/28 10:14:26;;;;;;;25.50;22.70;;;;;;;6.40;94.79;97939.58;106355;1275;24235;-78
2023/12/28 10:16:54;;;;;;;30.80;27.80;;;;;;;6.45;94.67;97935.34;106576;1278;23896;-77
2023/12/28 10:19:23;;;;;;;28.20;25.30;;;;;;;6.51;93.96;97935.69;106311;1282;22584;-79
2023/12/28 10:21:52;;;;;;;38.00;34.00;;;;;;;6.53;93.70;97938.52;106462;1269;24279;-78
2023/12/28 10:24:21;;;;;;;29.40;26.40;;;;;;;6.59;93.53;97939.49;106520;1273;26006;-77
2023/12/28 10:26:49;;;;;;;20.70;18.60;;;;;;;6.67;93.16;97945.90;106284;1268;25430;-78
2023/12/28 10:29:17;;;;;;;21.60;19.30;;;;;;;6.75;92.68;97946.19;106605;1264;23338;-78
2023/12/28 10:31:49;;;;;;;20.70;18.60;;;;;;;6.81;92.00;97954.16;106617;1268;24365;-78
2023/12/28 10:34:18;;;;;;;21.30;19.10;;;;;;;6.86;91.99;97950.39;106749;1277;23142;-78
2023/12/28 10:36:49;;;;;;;21.60;19.10;;;;;;;6.91;92.43;97955.52;106246;1277;25041;-79
2023/12/28 10:39:20;;;;;;;21.10;18.90;;;;;;;6.98;91.83;97946.96;106587;1283;23938;-79
2023/12/28 10:41:51;;;;;;;23.60;21.10;;;;;;;7.05;92.67;97942.27;106372;1282;22646;-81
2023/12/28 10:44:23;;;;;;;24.70;21.70;;;;;;;7.17;93.39;97942.45;106677;1273;22485;-78
2023/12/28 10:46:57;;;;;;;22.00;19.80;;;;;;;7.30;93.40;97941.09;106518;1277;24293;-78
2023/12/28 10:49:25;;;;;;;22.50;20.10;;;;;;;7.41;93.05;97942.91;106252;1268;24227;-78
2023/12/28 10:51:55;;;;;;;24.10;21.60;;;;;;;7.47;92.57;97940.36;106246;1283;25533;-78
2023/12/28 10:55:04;;;;;;;20.60;18.60;;;;;;;7.54;92.47;97938.13;106603;1268;24288;-78
2023/12/28 10:57:44;;;;;;;21.70;18.80;;;;;;;7.66;92.79;97932.83;106541;1283;22547;-79
2023/12/28 11:00:20;;;;;;;21.10;18.00;;;;;;;7.78;93.00;97930.77;106618;1269;22588;-79
2023/12/28 11:02:53;;;;;;;19.10;15.10;;;;;;;7.92;92.95;97919.08;106543;1272;24328;-79
2023/12/28 11:05:23;;;;;;;15.40;13.70;;;;;;;8.04;90.21;97928.69;106640;1261;24378;-79
2023/12/28 11:07:54;;;;;;;16.00;14.30;;;;;;;8.16;89.65;97925.64;106726;1270;22767;-79
2023/12/28 11:10:24;;;;;;;19.10;14.60;;;;;;;8.30;90.52;97916.81;106983;1270;22555;-79
2023/12/28 11:12:54;;;;;;;20.60;18.20;;;;;;;8.45;91.06;97906.44;106632;1273;22585;-78
2023/12/28 11:15:23;;;;;;;21.50;17.50;;;;;;;8.57;89.18;97914.41;106667;1273;25513;-78
2023/12/28 11:17:52;;;;;;;19.00;16.50;;;;;;;8.67;88.03;97911.70;106674;1270;23382;-79
2023/12/28 11:20:21;;;;;;;25.00;21.20;;;;;;;8.76;88.44;97906.70;106884;1268;25513;-79
2023/12/28 11:22:51;;;;;;;26.30;21.20;;;;;;;8.93;86.72;97905.03;107278;1271;25552;-79